sensor_id;sensor_type;location;lat;lon;timestamp;temperature;humidity
12013;DHT22;6065;48.138;16.402;2023-01-28T00:02:26;0.40;99.90
12013;DHT22;6065;48.138;16.402;2023-01-28T00:04:54;0.40;99.90
12013;DHT22;6065;48.138;16.402;2023-01-28T00:07:21;0.40;99.90
12013;DHT22;6065;48.138;16.402;2023-01-28T00:09:47;0.40;99.90
12013;DHT22;6065;48.138;16.402;2023-01-28T00:12:14;0.40;99.90
12013;DHT22;6065;48.138;16.402;2023-01-28T00:14:41;0.40;99.90
12013;DHT22;6065;48.138;16.402;2023-01-28T00:17:07;0.40;99.90
12013;DHT22;6065;48.138;16.402;2023-01-28T00:19:34;0.40;99.90
12013;DHT22;6065;48.138;16.402;2023-01-28T00:22:02;0.40;99.90
12013;DHT22;6065;48.138;16.402;2023-01-28T00:24:29;0.40;99.90
12013;DHT22;6065;48.138;16.402;2023-01-28T00:26:55;0.40;99.90
12013;DHT22;6065;48.138;16.402;2023-01-28T00:29:22;0.40;99.90
12013;DHT22;6065;48.138;16.402;2023-01-28T00:31:48;0.30;99.90
12013;DHT22;6065;48.138;16.402;2023-01-28T00:34:15;0.30;99.90
12013;DHT22;6065;48.138;16.402;2023-01-28T00:36:42;0.40;99.90
12013;DHT22;6065;48.138;16.402;2023-01-28T00:39:12;0.40;99.90
12013;DHT22;6065;48.138;16.402;2023-01-28T00:41:39;0.40;99.90
12013;DHT22;6065;48.138;16.402;2023-01-28T00:44:07;0.40;99.90
12013;DHT22;6065;48.138;16.402;2023-01-28T00:46:33;0.40;99.90
12013;DHT22;6065;48.138;16.402;2023-01-28T00:49:00;0.40;99.90
12013;DHT22;6065;48.138;16.402;2023-01-28T00:51:27;0.30;99.90
12013;DHT22;6065;48.138;16.402;2023-01-28T00:53:53;0.30;99.90
12013;DHT22;6065;48.138;16.402;2023-01-28T00:56:21;0.30;99.90
12013;DHT22;6065;48.138;16.402;2023-01-28T00:58:48;0.30;99.90
12013;DHT22;6065;48.138;16.402;2023-01-28T01:01:16;0.30;99.90
12013;DHT22;6065;48.138;16.402;2023-01-28T01:03:43;0.30;99.90
12013;DHT22;6065;48.138;16.402;2023-01-28T01:06:11;0.30;99.90
12013;DHT22;6065;48.138;16.402;2023-01-28T01:08:38;0.30;99.90
12013;DHT22;6065;48.138;16.402;2023-01-28T01:11:07;0.30;99.90
12013;DHT22;6065;48.138;16.402;2023-01-28T01:13:36;0.30;99.90
12013;DHT22;6065;48.138;16.402;2023-01-28T01:16:03;0.30;99.90
12013;DHT22;6065;48.138;16.402;2023-01-28T01:18:30;0.30;99.90
12013;DHT22;6065;48.138;16.402;2023-01-28T01:20:58;0.30;99.90
12013;DHT22;6065;48.138;16.402;2023-01-28T01:23:25;0.30;99.90
12013;DHT22;6065;48.138;16.402;2023-01-28T01:25:51;0.30;99.90
12013;DHT22;6065;48.138;16.402;2023-01-28T01:28:18;0.30;99.90
12013;DHT22;6065;48.138;16.402;2023-01-28T01:30:47;0.30;99.90
12013;DHT22;6065;48.138;16.402;2023-01-28T01:33:14;0.30;99.90
12013;DHT22;6065;48.138;16.402;2023-01-28T01:35:41;0.30;99.90
12013;DHT22;6065;48.138;16.402;2023-01-28T01:38:07;0.40;99.90
12013;DHT22;6065;48.138;16.402;2023-01-28T01:40:34;0.30;99.90
12013;DHT22;6065;48.138;16.402;2023-01-28T01:43:01;0.30;99.90
12013;DHT22;6065;48.138;16.402;2023-01-28T01:45:33;0.30;99.90
12013;DHT22;6065;48.138;16.402;2023-01-28T01:48:02;0.30;99.90
12013;DHT22;6065;48.138;16.402;2023-01-28T01:50:31;0.30;99.90
12013;DHT22;6065;48.138;16.402;2023-01-28T01:52:59;0.30;99.90
12013;DHT22;6065;48.138;16.402;2023-01-28T01:55:28;0.40;99.90
12013;DHT22;6065;48.138;16.402;2023-01-28T01:57:56;0.40;99.90
12013;DHT22;6065;48.138;16.402;2023-01-28T02:00:24;0.40;99.90
12013;DHT22;6065;48.138;16.402;2023-01-28T02:02:50;0.40;99.90
12013;DHT22;6065;48.138;16.402;2023-01-28T02:05:19;0.30;99.90
12013;DHT22;6065;48.138;16.402;2023-01-28T02:07:47;0.30;99.90
12013;DHT22;6065;48.138;16.402;2023-01-28T02:10:15;0.30;99.90
12013;DHT22;6065;48.138;16.402;2023-01-28T02:12:42;0.30;99.90
12013;DHT22;6065;48.138;16.402;2023-01-28T02:15:10;0.30;99.90
12013;DHT22;6065;48.138;16.402;2023-01-28T02:17:37;0.30;99.90
12013;DHT22;6065;48.138;16.402;2023-01-28T02:20:05;0.30;99.90
12013;DHT22;6065;48.138;16.402;2023-01-28T02:22:39;0.30;99.90
12013;DHT22;6065;48.138;16.402;2023-01-28T02:25:33;0.30;99.90
12013;DHT22;6065;48.138;16.402;2023-01-28T02:30:49;0.30;99.90
12013;DHT22;6065;48.138;16.402;2023-01-28T02:33:17;0.30;99.90
12013;DHT22;6065;48.138;16.402;2023-01-28T02:35:46;0.30;99.90
12013;DHT22;6065;48.138;16.402;2023-01-28T02:38:14;0.30;99.90
12013;DHT22;6065;48.138;16.402;2023-01-28T02:40:42;0.30;99.90
12013;DHT22;6065;48.138;16.402;2023-01-28T02:43:29;0.30;99.90
12013;DHT22;6065;48.138;16.402;2023-01-28T02:45:57;0.30;99.90
12013;DHT22;6065;48.138;16.402;2023-01-28T02:48:42;0.30;99.90
12013;DHT22;6065;48.138;16.402;2023-01-28T02:51:14;0.30;99.90
12013;DHT22;6065;48.138;16.402;2023-01-28T02:53:44;0.30;99.90
12013;DHT22;6065;48.138;16.402;2023-01-28T02:56:14;0.30;99.90
12013;DHT22;6065;48.138;16.402;2023-01-28T02:58:43;0.30;99.90
12013;DHT22;6065;48.138;16.402;2023-01-28T03:01:15;0.30;99.90
12013;DHT22;6065;48.138;16.402;2023-01-28T03:03:48;0.30;99.90
12013;DHT22;6065;48.138;16.402;2023-01-28T03:06:17;0.30;99.90
12013;DHT22;6065;48.138;16.402;2023-01-28T03:08:46;0.30;99.90
12013;DHT22;6065;48.138;16.402;2023-01-28T03:11:32;0.30;99.90
12013;DHT22;6065;48.138;16.402;2023-01-28T03:14:18;0.30;99.90
12013;DHT22;6065;48.138;16.402;2023-01-28T03:17:04;0.30;99.90
12013;DHT22;6065;48.138;16.402;2023-01-28T03:19:48;0.30;99.90
12013;DHT22;6065;48.138;16.402;2023-01-28T03:22:33;0.30;99.90
12013;DHT22;6065;48.138;16.402;2023-01-28T03:25:19;0.30;99.90
12013;DHT22;6065;48.138;16.402;2023-01-28T03:28:06;0.30;99.90
12013;DHT22;6065;48.138;16.402;2023-01-28T03:30:52;0.20;99.90
12013;DHT22;6065;48.138;16.402;2023-01-28T03:33:40;0.20;99.90
12013;DHT22;6065;48.138;16.402;2023-01-28T03:36:24;0.20;99.90
12013;DHT22;6065;48.138;16.402;2023-01-28T03:39:09;0.20;99.90
12013;DHT22;6065;48.138;16.402;2023-01-28T03:41:35;0.20;99.90
12013;DHT22;6065;48.138;16.402;2023-01-28T03:44:02;0.20;99.90
12013;DHT22;6065;48.138;16.402;2023-01-28T03:46:46;0.20;99.90
12013;DHT22;6065;48.138;16.402;2023-01-28T03:49:14;0.20;99.90
12013;DHT22;6065;48.138;16.402;2023-01-28T03:51:41;0.20;99.90
12013;DHT22;6065;48.138;16.402;2023-01-28T03:54:09;0.20;99.90
12013;DHT22;6065;48.138;16.402;2023-01-28T03:56:36;0.20;99.90
12013;DHT22;6065;48.138;16.402;2023-01-28T03:59:04;0.20;99.90
12013;DHT22;6065;48.138;16.402;2023-01-28T04:01:31;0.20;99.90
12013;DHT22;6065;48.138;16.402;2023-01-28T04:03:58;0.20;99.90
12013;DHT22;6065;48.138;16.402;2023-01-28T04:06:26;0.20;99.90
12013;DHT22;6065;48.138;16.402;2023-01-28T04:08:53;0.10;99.90
12013;DHT22;6065;48.138;16.402;2023-01-28T04:11:23;0.10;99.90
12013;DHT22;6065;48.138;16.402;2023-01-28T04:13:50;0.10;99.90
12013;DHT22;6065;48.138;16.402;2023-01-28T04:16:18;0.20;99.90
12013;DHT22;6065;48.138;16.402;2023-01-28T04:18:44;0.10;99.90
12013;DHT22;6065;48.138;16.402;2023-01-28T04:21:11;0.20;99.90
12013;DHT22;6065;48.138;16.402;2023-01-28T04:23:39;0.10;99.90
12013;DHT22;6065;48.138;16.402;2023-01-28T04:26:06;0.20;99.90
12013;DHT22;6065;48.138;16.402;2023-01-28T04:28:32;0.10;99.90
12013;DHT22;6065;48.138;16.402;2023-01-28T04:30:59;0.10;99.90
12013;DHT22;6065;48.138;16.402;2023-01-28T04:33:26;0.10;99.90
12013;DHT22;6065;48.138;16.402;2023-01-28T04:35:52;0.10;99.90
12013;DHT22;6065;48.138;16.402;2023-01-28T04:38:19;0.10;99.90
12013;DHT22;6065;48.138;16.402;2023-01-28T04:40:49;0.10;99.90
12013;DHT22;6065;48.138;16.402;2023-01-28T04:43:16;0.10;99.90
12013;DHT22;6065;48.138;16.402;2023-01-28T04:45:44;0.10;99.90
12013;DHT22;6065;48.138;16.402;2023-01-28T04:48:11;0.10;99.90
12013;DHT22;6065;48.138;16.402;2023-01-28T04:50:37;0.10;99.90
12013;DHT22;6065;48.138;16.402;2023-01-28T04:53:04;0.10;99.90
12013;DHT22;6065;48.138;16.402;2023-01-28T04:55:31;0.10;99.90
12013;DHT22;6065;48.138;16.402;2023-01-28T04:57:59;0.10;99.90
12013;DHT22;6065;48.138;16.402;2023-01-28T05:00:26;0.10;99.90
12013;DHT22;6065;48.138;16.402;2023-01-28T05:02:52;0.10;99.90
12013;DHT22;6065;48.138;16.402;2023-01-28T05:05:19;0.10;99.90
12013;DHT22;6065;48.138;16.402;2023-01-28T05:07:49;0.00;99.90
12013;DHT22;6065;48.138;16.402;2023-01-28T05:10:16;0.00;99.90
12013;DHT22;6065;48.138;16.402;2023-01-28T05:12:43;0.10;99.90
12013;DHT22;6065;48.138;16.402;2023-01-28T05:15:11;0.10;99.90
12013;DHT22;6065;48.138;16.402;2023-01-28T05:17:38;0.00;99.90
12013;DHT22;6065;48.138;16.402;2023-01-28T05:20:06;0.00;99.90
12013;DHT22;6065;48.138;16.402;2023-01-28T05:22:33;0.00;99.90
12013;DHT22;6065;48.138;16.402;2023-01-28T05:24:59;0.00;99.90
12013;DHT22;6065;48.138;16.402;2023-01-28T05:27:28;0.00;99.90
12013;DHT22;6065;48.138;16.402;2023-01-28T05:29:54;0.00;99.90
12013;DHT22;6065;48.138;16.402;2023-01-28T05:32:22;0.00;99.90
12013;DHT22;6065;48.138;16.402;2023-01-28T05:34:49;0.00;99.90
12013;DHT22;6065;48.138;16.402;2023-01-28T05:37:17;0.00;99.90
12013;DHT22;6065;48.138;16.402;2023-01-28T05:39:43;0.00;99.90
12013;DHT22;6065;48.138;16.402;2023-01-28T05:42:10;-0.10;99.90
12013;DHT22;6065;48.138;16.402;2023-01-28T05:44:37;-0.10;99.90
12013;DHT22;6065;48.138;16.402;2023-01-28T05:47:03;-0.10;99.90
12013;DHT22;6065;48.138;16.402;2023-01-28T05:49:31;0.00;99.90
12013;DHT22;6065;48.138;16.402;2023-01-28T05:51:58;-0.10;99.90
12013;DHT22;6065;48.138;16.402;2023-01-28T05:54:26;-0.10;99.90
12013;DHT22;6065;48.138;16.402;2023-01-28T05:56:53;0.00;99.90
12013;DHT22;6065;48.138;16.402;2023-01-28T05:59:19;0.00;99.90
12013;DHT22;6065;48.138;16.402;2023-01-28T06:01:46;0.00;99.90
12013;DHT22;6065;48.138;16.402;2023-01-28T06:04:13;-0.10;99.90
12013;DHT22;6065;48.138;16.402;2023-01-28T06:06:41;-0.10;99.90
12013;DHT22;6065;48.138;16.402;2023-01-28T06:09:07;0.00;99.90
12013;DHT22;6065;48.138;16.402;2023-01-28T06:11:34;-0.10;99.90
12013;DHT22;6065;48.138;16.402;2023-01-28T06:14:00;-0.10;99.90
12013;DHT22;6065;48.138;16.402;2023-01-28T06:16:27;0.00;99.90
12013;DHT22;6065;48.138;16.402;2023-01-28T06:18:54;-0.10;99.90
12013;DHT22;6065;48.138;16.402;2023-01-28T06:21:21;0.00;99.90
12013;DHT22;6065;48.138;16.402;2023-01-28T06:23:49;0.00;99.90
12013;DHT22;6065;48.138;16.402;2023-01-28T06:26:16;0.00;99.90
12013;DHT22;6065;48.138;16.402;2023-01-28T06:28:42;0.10;99.90
12013;DHT22;6065;48.138;16.402;2023-01-28T06:31:09;0.00;99.90
12013;DHT22;6065;48.138;16.402;2023-01-28T06:33:36;0.00;99.90
12013;DHT22;6065;48.138;16.402;2023-01-28T06:36:03;0.10;99.90
12013;DHT22;6065;48.138;16.402;2023-01-28T06:38:30;0.00;99.90
12013;DHT22;6065;48.138;16.402;2023-01-28T06:40:59;0.10;99.90
12013;DHT22;6065;48.138;16.402;2023-01-28T06:43:25;0.10;99.90
12013;DHT22;6065;48.138;16.402;2023-01-28T06:45:54;0.10;99.90
12013;DHT22;6065;48.138;16.402;2023-01-28T06:48:21;0.10;99.90
12013;DHT22;6065;48.138;16.402;2023-01-28T06:50:48;0.00;99.90
12013;DHT22;6065;48.138;16.402;2023-01-28T06:53:15;0.10;99.90
12013;DHT22;6065;48.138;16.402;2023-01-28T06:55:42;0.00;99.90
12013;DHT22;6065;48.138;16.402;2023-01-28T06:58:10;0.00;99.90
12013;DHT22;6065;48.138;16.402;2023-01-28T07:00:37;0.10;99.90
12013;DHT22;6065;48.138;16.402;2023-01-28T07:03:04;0.10;99.90
12013;DHT22;6065;48.138;16.402;2023-01-28T07:05:30;0.10;99.90
12013;DHT22;6065;48.138;16.402;2023-01-28T07:07:57;0.10;99.90
12013;DHT22;6065;48.138;16.402;2023-01-28T07:10:24;0.10;99.90
12013;DHT22;6065;48.138;16.402;2023-01-28T07:12:50;0.10;99.90
12013;DHT22;6065;48.138;16.402;2023-01-28T07:15:18;0.10;99.90
12013;DHT22;6065;48.138;16.402;2023-01-28T07:17:45;0.20;99.90
12013;DHT22;6065;48.138;16.402;2023-01-28T07:20:12;0.20;99.90
12013;DHT22;6065;48.138;16.402;2023-01-28T07:22:40;0.20;99.90
12013;DHT22;6065;48.138;16.402;2023-01-28T07:25:07;0.20;99.90
12013;DHT22;6065;48.138;16.402;2023-01-28T07:27:34;0.20;99.90
12013;DHT22;6065;48.138;16.402;2023-01-28T07:30:01;0.20;99.90
12013;DHT22;6065;48.138;16.402;2023-01-28T07:32:29;0.20;99.90
12013;DHT22;6065;48.138;16.402;2023-01-28T07:34:55;0.20;99.90
12013;DHT22;6065;48.138;16.402;2023-01-28T07:37:23;0.20;99.90
12013;DHT22;6065;48.138;16.402;2023-01-28T07:39:49;0.20;99.90
12013;DHT22;6065;48.138;16.402;2023-01-28T07:42:16;0.30;99.90
12013;DHT22;6065;48.138;16.402;2023-01-28T07:44:43;0.20;99.90
12013;DHT22;6065;48.138;16.402;2023-01-28T07:47:10;0.20;99.90
12013;DHT22;6065;48.138;16.402;2023-01-28T07:49:38;0.20;99.90
12013;DHT22;6065;48.138;16.402;2023-01-28T07:52:05;0.20;99.90
12013;DHT22;6065;48.138;16.402;2023-01-28T07:54:31;0.20;99.90
12013;DHT22;6065;48.138;16.402;2023-01-28T07:56:59;0.30;99.90
12013;DHT22;6065;48.138;16.402;2023-01-28T07:59:26;0.30;99.90
12013;DHT22;6065;48.138;16.402;2023-01-28T08:01:52;0.30;99.90
12013;DHT22;6065;48.138;16.402;2023-01-28T08:04:19;0.30;99.90
12013;DHT22;6065;48.138;16.402;2023-01-28T08:06:47;0.30;99.90
12013;DHT22;6065;48.138;16.402;2023-01-28T08:09:16;0.30;99.90
12013;DHT22;6065;48.138;16.402;2023-01-28T08:11:43;0.30;99.90
12013;DHT22;6065;48.138;16.402;2023-01-28T08:14:09;0.30;99.90
12013;DHT22;6065;48.138;16.402;2023-01-28T08:16:36;0.30;99.90
12013;DHT22;6065;48.138;16.402;2023-01-28T08:19:03;0.30;99.90
12013;DHT22;6065;48.138;16.402;2023-01-28T08:21:30;0.30;99.90
12013;DHT22;6065;48.138;16.402;2023-01-28T08:23:58;0.40;99.90
12013;DHT22;6065;48.138;16.402;2023-01-28T08:26:24;0.40;99.90
12013;DHT22;6065;48.138;16.402;2023-01-28T08:28:51;0.40;99.90
12013;DHT22;6065;48.138;16.402;2023-01-28T08:31:18;0.40;99.90
12013;DHT22;6065;48.138;16.402;2023-01-28T08:33:44;0.40;99.90
12013;DHT22;6065;48.138;16.402;2023-01-28T08:36:11;0.40;99.90
12013;DHT22;6065;48.138;16.402;2023-01-28T08:38:38;0.40;99.90
12013;DHT22;6065;48.138;16.402;2023-01-28T08:41:06;0.50;99.90
12013;DHT22;6065;48.138;16.402;2023-01-28T08:43:32;0.50;99.90
12013;DHT22;6065;48.138;16.402;2023-01-28T08:45:59;0.50;99.90
12013;DHT22;6065;48.138;16.402;2023-01-28T08:48:26;0.50;99.90
12013;DHT22;6065;48.138;16.402;2023-01-28T08:50:52;0.50;99.90
12013;DHT22;6065;48.138;16.402;2023-01-28T08:53:23;0.50;99.90
12013;DHT22;6065;48.138;16.402;2023-01-28T08:55:50;0.50;99.90
12013;DHT22;6065;48.138;16.402;2023-01-28T08:58:18;0.50;99.90
12013;DHT22;6065;48.138;16.402;2023-01-28T09:00:45;0.60;99.90
12013;DHT22;6065;48.138;16.402;2023-01-28T09:03:11;0.60;99.90
12013;DHT22;6065;48.138;16.402;2023-01-28T09:05:38;0.60;99.90
12013;DHT22;6065;48.138;16.402;2023-01-28T09:08:06;0.60;99.90
12013;DHT22;6065;48.138;16.402;2023-01-28T09:10:33;0.70;99.90
12013;DHT22;6065;48.138;16.402;2023-01-28T09:13:03;0.60;99.90
12013;DHT22;6065;48.138;16.402;2023-01-28T09:15:31;0.60;99.90
12013;DHT22;6065;48.138;16.402;2023-01-28T09:17:58;0.60;99.90
12013;DHT22;6065;48.138;16.402;2023-01-28T09:20:25;0.60;99.90
12013;DHT22;6065;48.138;16.402;2023-01-28T09:22:51;0.60;99.90
12013;DHT22;6065;48.138;16.402;2023-01-28T09:25:18;0.60;99.90
12013;DHT22;6065;48.138;16.402;2023-01-28T09:27:45;0.70;99.90
12013;DHT22;6065;48.138;16.402;2023-01-28T09:30:12;0.70;99.90
12013;DHT22;6065;48.138;16.402;2023-01-28T09:32:40;0.80;99.90
12013;DHT22;6065;48.138;16.402;2023-01-28T09:35:08;0.80;99.90
12013;DHT22;6065;48.138;16.402;2023-01-28T09:37:35;0.80;99.90
12013;DHT22;6065;48.138;16.402;2023-01-28T09:40:02;0.80;99.90
12013;DHT22;6065;48.138;16.402;2023-01-28T09:42:42;0.80;99.90
12013;DHT22;6065;48.138;16.402;2023-01-28T09:45:13;0.80;99.90
12013;DHT22;6065;48.138;16.402;2023-01-28T09:47:43;0.80;99.90
12013;DHT22;6065;48.138;16.402;2023-01-28T09:50:13;0.80;99.90
12013;DHT22;6065;48.138;16.402;2023-01-28T09:52:42;0.80;99.90
12013;DHT22;6065;48.138;16.402;2023-01-28T09:55:13;0.90;99.90
12013;DHT22;6065;48.138;16.402;2023-01-28T09:57:40;0.90;99.90
12013;DHT22;6065;48.138;16.402;2023-01-28T10:00:11;0.90;99.90
12013;DHT22;6065;48.138;16.402;2023-01-28T10:02:40;1.00;99.90
12013;DHT22;6065;48.138;16.402;2023-01-28T10:05:18;1.00;99.90
12013;DHT22;6065;48.138;16.402;2023-01-28T10:07:48;1.00;99.90
12013;DHT22;6065;48.138;16.402;2023-01-28T10:10:16;1.00;99.90
12013;DHT22;6065;48.138;16.402;2023-01-28T10:12:53;1.00;99.90
12013;DHT22;6065;48.138;16.402;2023-01-28T10:18:23;1.00;99.90
12013;DHT22;6065;48.138;16.402;2023-01-28T10:20:57;1.00;99.90
12013;DHT22;6065;48.138;16.402;2023-01-28T10:23:28;1.00;99.90
12013;DHT22;6065;48.138;16.402;2023-01-28T10:26:00;1.00;99.90
12013;DHT22;6065;48.138;16.402;2023-01-28T10:28:32;1.00;99.90
12013;DHT22;6065;48.138;16.402;2023-01-28T10:30:59;1.00;99.90
12013;DHT22;6065;48.138;16.402;2023-01-28T10:33:27;1.00;99.90
12013;DHT22;6065;48.138;16.402;2023-01-28T10:35:58;1.00;99.90
12013;DHT22;6065;48.138;16.402;2023-01-28T10:38:32;1.10;99.90
12013;DHT22;6065;48.138;16.402;2023-01-28T10:43:59;1.10;99.90
12013;DHT22;6065;48.138;16.402;2023-01-28T10:46:26;1.10;99.90
12013;DHT22;6065;48.138;16.402;2023-01-28T10:48:55;1.00;99.90
12013;DHT22;6065;48.138;16.402;2023-01-28T10:51:31;1.00;99.90
12013;DHT22;6065;48.138;16.402;2023-01-28T10:53:58;1.00;99.90
12013;DHT22;6065;48.138;16.402;2023-01-28T10:56:25;1.00;99.90
12013;DHT22;6065;48.138;16.402;2023-01-28T10:58:56;1.00;99.90
12013;DHT22;6065;48.138;16.402;2023-01-28T11:01:24;1.00;99.90
12013;DHT22;6065;48.138;16.402;2023-01-28T11:03:52;1.00;99.90
12013;DHT22;6065;48.138;16.402;2023-01-28T11:06:22;1.00;99.90
12013;DHT22;6065;48.138;16.402;2023-01-28T11:08:53;1.00;99.90
12013;DHT22;6065;48.138;16.402;2023-01-28T11:11:23;1.00;99.90
12013;DHT22;6065;48.138;16.402;2023-01-28T11:13:51;1.00;99.90
12013;DHT22;6065;48.138;16.402;2023-01-28T11:16:19;0.90;99.90
12013;DHT22;6065;48.138;16.402;2023-01-28T11:18:47;1.00;99.90
12013;DHT22;6065;48.138;16.402;2023-01-28T11:21:15;1.00;99.90
12013;DHT22;6065;48.138;16.402;2023-01-28T11:23:46;1.00;99.90
12013;DHT22;6065;48.138;16.402;2023-01-28T11:26:17;1.00;99.90
12013;DHT22;6065;48.138;16.402;2023-01-28T11:28:44;1.00;99.90
12013;DHT22;6065;48.138;16.402;2023-01-28T11:31:12;1.00;99.90
12013;DHT22;6065;48.138;16.402;2023-01-28T11:33:42;1.00;99.90
12013;DHT22;6065;48.138;16.402;2023-01-28T11:36:12;1.00;99.90
12013;DHT22;6065;48.138;16.402;2023-01-28T11:38:46;1.00;99.90
12013;DHT22;6065;48.138;16.402;2023-01-28T11:41:13;1.00;99.90
12013;DHT22;6065;48.138;16.402;2023-01-28T11:43:43;1.00;99.90
12013;DHT22;6065;48.138;16.402;2023-01-28T11:46:16;1.00;99.90
12013;DHT22;6065;48.138;16.402;2023-01-28T11:48:49;1.00;99.90
12013;DHT22;6065;48.138;16.402;2023-01-28T11:51:21;1.00;99.90
12013;DHT22;6065;48.138;16.402;2023-01-28T11:53:59;1.00;99.90
12013;DHT22;6065;48.138;16.402;2023-01-28T11:56:33;1.00;99.90
12013;DHT22;6065;48.138;16.402;2023-01-28T11:59:09;1.00;99.90
12013;DHT22;6065;48.138;16.402;2023-01-28T12:01:46;1.10;99.90
12013;DHT22;6065;48.138;16.402;2023-01-28T12:04:22;1.10;99.90
12013;DHT22;6065;48.138;16.402;2023-01-28T12:06:56;1.10;99.90
12013;DHT22;6065;48.138;16.402;2023-01-28T12:09:28;1.10;99.90
12013;DHT22;6065;48.138;16.402;2023-01-28T12:12:02;1.10;99.90
12013;DHT22;6065;48.138;16.402;2023-01-28T12:14:55;1.20;99.90
12013;DHT22;6065;48.138;16.402;2023-01-28T12:17:27;1.10;99.90
12013;DHT22;6065;48.138;16.402;2023-01-28T12:20:00;1.10;99.90
12013;DHT22;6065;48.138;16.402;2023-01-28T12:25:15;1.20;99.90
12013;DHT22;6065;48.138;16.402;2023-01-28T12:27:47;1.20;99.90
12013;DHT22;6065;48.138;16.402;2023-01-28T12:30:20;1.30;99.90
12013;DHT22;6065;48.138;16.402;2023-01-28T12:32:51;1.30;99.90
12013;DHT22;6065;48.138;16.402;2023-01-28T12:35:38;1.20;99.90
12013;DHT22;6065;48.138;16.402;2023-01-28T12:38:11;1.30;99.90
12013;DHT22;6065;48.138;16.402;2023-01-28T12:40:48;1.30;99.90
12013;DHT22;6065;48.138;16.402;2023-01-28T12:43:18;1.30;99.90
12013;DHT22;6065;48.138;16.402;2023-01-28T12:45:48;1.40;99.90
12013;DHT22;6065;48.138;16.402;2023-01-28T12:48:18;1.30;99.90
12013;DHT22;6065;48.138;16.402;2023-01-28T12:50:49;1.30;99.90
12013;DHT22;6065;48.138;16.402;2023-01-28T12:53:19;1.30;99.90
12013;DHT22;6065;48.138;16.402;2023-01-28T12:55:50;1.30;99.90
12013;DHT22;6065;48.138;16.402;2023-01-28T12:58:20;1.30;99.90
12013;DHT22;6065;48.138;16.402;2023-01-28T13:00:51;1.30;99.90
12013;DHT22;6065;48.138;16.402;2023-01-28T13:03:20;1.30;99.90
12013;DHT22;6065;48.138;16.402;2023-01-28T13:05:51;1.30;99.90
12013;DHT22;6065;48.138;16.402;2023-01-28T13:08:19;1.40;99.90
12013;DHT22;6065;48.138;16.402;2023-01-28T13:10:47;1.30;99.90
12013;DHT22;6065;48.138;16.402;2023-01-28T13:13:17;1.30;99.90
12013;DHT22;6065;48.138;16.402;2023-01-28T13:15:45;1.30;99.90
12013;DHT22;6065;48.138;16.402;2023-01-28T13:21:11;1.40;99.90
12013;DHT22;6065;48.138;16.402;2023-01-28T13:23:40;1.30;99.90
12013;DHT22;6065;48.138;16.402;2023-01-28T13:26:08;1.30;99.90
12013;DHT22;6065;48.138;16.402;2023-01-28T13:28:35;1.30;99.90
12013;DHT22;6065;48.138;16.402;2023-01-28T13:31:02;1.30;99.90
12013;DHT22;6065;48.138;16.402;2023-01-28T13:33:30;1.30;99.90
12013;DHT22;6065;48.138;16.402;2023-01-28T13:35:58;1.20;99.90
12013;DHT22;6065;48.138;16.402;2023-01-28T13:38:28;1.20;99.90
12013;DHT22;6065;48.138;16.402;2023-01-28T13:40:56;1.20;99.90
12013;DHT22;6065;48.138;16.402;2023-01-28T13:43:26;1.20;99.90
12013;DHT22;6065;48.138;16.402;2023-01-28T13:45:54;1.20;99.90
12013;DHT22;6065;48.138;16.402;2023-01-28T13:48:22;1.30;99.90
12013;DHT22;6065;48.138;16.402;2023-01-28T13:50:52;1.20;99.90
12013;DHT22;6065;48.138;16.402;2023-01-28T13:53:22;1.30;99.90
12013;DHT22;6065;48.138;16.402;2023-01-28T13:55:52;1.20;99.90
12013;DHT22;6065;48.138;16.402;2023-01-28T13:58:33;1.20;99.90
12013;DHT22;6065;48.138;16.402;2023-01-28T14:01:11;1.30;99.90
12013;DHT22;6065;48.138;16.402;2023-01-28T14:09:27;1.30;99.90
12013;DHT22;6065;48.138;16.402;2023-01-28T14:12:05;1.20;99.90
12013;DHT22;6065;48.138;16.402;2023-01-28T14:17:40;1.30;99.90
12013;DHT22;6065;48.138;16.402;2023-01-28T14:20:10;1.30;99.90
12013;DHT22;6065;48.138;16.402;2023-01-28T14:22:40;1.30;99.90
12013;DHT22;6065;48.138;16.402;2023-01-28T14:25:10;1.30;99.90
12013;DHT22;6065;48.138;16.402;2023-01-28T14:27:40;1.30;99.90
12013;DHT22;6065;48.138;16.402;2023-01-28T14:30:12;1.30;99.90
12013;DHT22;6065;48.138;16.402;2023-01-28T14:32:43;1.30;99.90
12013;DHT22;6065;48.138;16.402;2023-01-28T14:35:14;1.30;99.90
12013;DHT22;6065;48.138;16.402;2023-01-28T14:37:41;1.20;99.90
12013;DHT22;6065;48.138;16.402;2023-01-28T14:40:10;1.30;99.90
12013;DHT22;6065;48.138;16.402;2023-01-28T14:42:41;1.30;99.90
12013;DHT22;6065;48.138;16.402;2023-01-28T14:45:21;1.30;99.90
12013;DHT22;6065;48.138;16.402;2023-01-28T14:48:10;1.20;99.90
12013;DHT22;6065;48.138;16.402;2023-01-28T14:50:46;1.20;99.90
12013;DHT22;6065;48.138;16.402;2023-01-28T14:56:06;1.30;99.90
12013;DHT22;6065;48.138;16.402;2023-01-28T14:58:38;1.30;99.90
12013;DHT22;6065;48.138;16.402;2023-01-28T15:01:16;1.30;99.90
12013;DHT22;6065;48.138;16.402;2023-01-28T15:03:44;1.30;99.90
12013;DHT22;6065;48.138;16.402;2023-01-28T15:06:12;1.30;99.90
12013;DHT22;6065;48.138;16.402;2023-01-28T15:08:39;1.30;99.90
12013;DHT22;6065;48.138;16.402;2023-01-28T15:11:06;1.20;99.90
12013;DHT22;6065;48.138;16.402;2023-01-28T15:13:36;1.20;99.90
12013;DHT22;6065;48.138;16.402;2023-01-28T15:16:04;1.20;99.90
12013;DHT22;6065;48.138;16.402;2023-01-28T15:18:32;1.30;99.90
12013;DHT22;6065;48.138;16.402;2023-01-28T15:20:59;1.30;99.90
12013;DHT22;6065;48.138;16.402;2023-01-28T15:23:28;1.20;99.90
12013;DHT22;6065;48.138;16.402;2023-01-28T15:25:57;1.20;99.90
12013;DHT22;6065;48.138;16.402;2023-01-28T15:28:24;1.20;99.90
12013;DHT22;6065;48.138;16.402;2023-01-28T15:30:53;1.20;99.90
12013;DHT22;6065;48.138;16.402;2023-01-28T15:33:20;1.20;99.90
12013;DHT22;6065;48.138;16.402;2023-01-28T15:35:47;1.20;99.90
12013;DHT22;6065;48.138;16.402;2023-01-28T15:38:14;1.20;99.90
12013;DHT22;6065;48.138;16.402;2023-01-28T15:40:42;1.20;99.90
12013;DHT22;6065;48.138;16.402;2023-01-28T15:43:16;1.20;99.90
12013;DHT22;6065;48.138;16.402;2023-01-28T15:45:44;1.20;99.90
12013;DHT22;6065;48.138;16.402;2023-01-28T15:48:13;1.20;99.90
12013;DHT22;6065;48.138;16.402;2023-01-28T15:50:41;1.20;99.90
12013;DHT22;6065;48.138;16.402;2023-01-28T15:53:09;1.20;99.90
12013;DHT22;6065;48.138;16.402;2023-01-28T15:55:37;1.20;99.90
12013;DHT22;6065;48.138;16.402;2023-01-28T15:58:17;1.20;99.90
12013;DHT22;6065;48.138;16.402;2023-01-28T16:00:45;1.20;99.90
12013;DHT22;6065;48.138;16.402;2023-01-28T16:03:17;1.20;99.90
12013;DHT22;6065;48.138;16.402;2023-01-28T16:05:52;1.20;99.90
12013;DHT22;6065;48.138;16.402;2023-01-28T16:08:22;1.10;99.90
12013;DHT22;6065;48.138;16.402;2023-01-28T16:10:50;1.20;99.90
12013;DHT22;6065;48.138;16.402;2023-01-28T16:13:18;1.20;99.90
12013;DHT22;6065;48.138;16.402;2023-01-28T16:15:46;1.20;99.90
12013;DHT22;6065;48.138;16.402;2023-01-28T16:18:14;1.20;99.90
12013;DHT22;6065;48.138;16.402;2023-01-28T16:20:48;1.20;99.90
12013;DHT22;6065;48.138;16.402;2023-01-28T16:23:18;1.20;99.90
12013;DHT22;6065;48.138;16.402;2023-01-28T16:25:45;1.20;99.90